Airfield :
LOGIN :

Register | Disclaimer

   EN    FR    IT 

 










Legend :    VFR   Marginal VFR   IFR   Intensive IFR   Very Intensive IFR
Visi :
Ceiling :
>= 8 km
>= 3000ft
5 to 8 km
1000 to 3000 ft
1500m to 5 km
500 to 1000 ft
800 to 1500m
200 to 500 ft
< 800m
< 200 ft
Symbols :   Thunderstorms  Fog  Heavy snow  Heavy precipitations  Wind > 20 kt
SIGMETs :     Misc.  Thunderstorms  Icing  Turbulence  Mountain Waves  Volcanic Ashes







- Airport Elevation : 74 ft
- IATA code : LRH
- Download approach charts


LFBH - La Rochelle Ile de Ré

CURRENT METAR :
  • 201530Z AUTO 18004KT 140V220 CAVOK 05/M00 Q1003 TEMPO BKN012

EXPIRED METARs :
  • 201500Z AUTO 21003KT 170V290 9999 SCT033 05/00 Q1003 TEMPO BKN012
  • 201430Z AUTO 23003KT 160V330 CAVOK 06/00 Q1003 TEMPO BKN012
  • 201400Z AUTO 19004KT 140V250 9999 FEW020 SCT028 05/00 Q1003 TEMPO BKN012
  • 201330Z AUTO 16006KT 9999 FEW020 SCT026 05/01 Q1003 TEMPO BKN012
  • 201300Z AUTO 17004KT 130V220 9999 BKN023 OVC036 05/01 Q1003 NOSIG

TAF TAF LFBH
Valid from the 20 at 12:00 until the 21 at 12:00 UTC


201100Z 2012/2112 VRB02KT 9999 BKN025
PROB30
TEMPO 2015/2020 BKN012
BECMG 2100/2102 12008KT
ATIS : +33 5 46 00 13 92
No reported NOTAMs for that airfield.



MET'MAP, your aeronautical weather chart ! - Copyright ORBIFLY December 2007 - Disclaimer

ORBIFLY MET'MAP TEAM :

Programming & Development : Alexandra Zaïnal
Concept & Development : Baudouin d'Aumeries
Co-Development & Prog : Marc-Olivier Méhu
Technical & hardware support : Manuel Goepfert

Contact : metmap@orbifly.com




SOURCES & CREDITS :

   NOAA